Time;durP1;ratioP1;P1;durP2;ratioP2;P2;SDS_P1;SDS_P2;PMS_P1;PMS_P2;Temp;Humidity;BMP_temperature;BMP_pressure;BME280_temperature;BME280_humidity;BME280_pressure;Samples;Min_cycle;Max_cycle;Signal;HPM_P1;HPM_P2
2023/06/16 00:02:27;;;;;;;10.07;5.68;;;17.00;99.90;;;;;;5012898;28;20045;-84
2023/06/16 00:05:13;;;;;;;10.00;4.97;;;17.00;99.90;;;;;;5002915;28;20417;-83
2023/06/16 00:08:00;;;;;;;8.32;5.13;;;17.00;99.90;;;;;;5030122;28;20049;-82
2023/06/16 00:10:46;;;;;;;8.25;5.30;;;16.90;99.90;;;;;;5016826;28;20076;-83
2023/06/16 00:13:33;;;;;;;9.00;5.95;;;16.90;99.90;;;;;;5029435;28;20572;-88
2023/06/16 00:16:20;;;;;;;7.50;5.38;;;16.90;99.90;;;;;;5016912;28;20084;-84
2023/06/16 00:19:06;;;;;;;9.00;5.20;;;16.90;99.90;;;;;;5018049;28;20073;-84
2023/06/16 00:21:52;;;;;;;8.68;5.72;;;16.90;99.90;;;;;;5032349;28;20115;-85
2023/06/16 00:24:39;;;;;;;9.82;6.55;;;16.80;99.90;;;;;;5030166;28;20418;-84
2023/06/16 00:27:25;;;;;;;11.82;6.65;;;16.80;99.90;;;;;;5031427;28;20091;-82
2023/06/16 00:30:12;;;;;;;12.75;6.88;;;16.80;99.90;;;;;;5030255;28;20049;-81
2023/06/16 00:32:58;;;;;;;9.82;7.07;;;16.80;99.90;;;;;;5031568;28;20057;-81
2023/06/16 00:35:44;;;;;;;10.85;6.82;;;16.70;99.90;;;;;;5016275;28;20049;-80
2023/06/16 00:38:30;;;;;;;12.57;8.48;;;16.70;99.90;;;;;;5013331;28;20107;-85
2023/06/16 00:41:16;;;;;;;11.15;6.88;;;16.70;99.90;;;;;;5018539;28;20053;-85
2023/06/16 00:44:03;;;;;;;14.70;8.57;;;16.70;99.90;;;;;;5013129;28;20081;-81
2023/06/16 00:46:50;;;;;;;13.43;8.70;;;16.70;99.90;;;;;;5033334;28;20053;-82
2023/06/16 00:49:36;;;;;;;11.82;8.63;;;16.60;99.90;;;;;;5032088;28;20046;-89
2023/06/16 00:52:27;;;;;;;13.43;8.00;;;16.60;99.90;;;;;;5018573;28;20053;-86
2023/06/16 00:55:15;;;;;;;13.82;8.20;;;16.60;99.90;;;;;;5036278;28;20140;-83
2023/06/16 00:58:02;;;;;;;11.02;7.85;;;16.60;99.90;;;;;;5030441;28;20088;-86
2023/06/16 01:00:49;;;;;;;14.40;8.23;;;16.60;99.90;;;;;;5029416;28;20149;-82
2023/06/16 01:03:35;;;;;;;12.40;7.40;;;16.50;99.90;;;;;;5028968;28;20050;-84
2023/06/16 01:06:30;;;;;;;12.70;7.57;;;16.50;99.90;;;;;;5011768;28;20065;-82
2023/06/16 01:09:59;;;;;;;11.30;8.07;;;16.50;99.90;;;;;;5011795;28;20103;-87
2023/06/16 01:12:49;;;;;;;11.65;7.68;;;16.50;99.90;;;;;;5030705;28;20057;-83
2023/06/16 01:15:37;;;;;;;13.30;8.15;;;16.40;99.90;;;;;;5029516;28;20168;-89
2023/06/16 01:18:26;;;;;;;11.38;8.77;;;16.40;99.90;;;;;;5011217;28;20049;-81
2023/06/16 01:21:39;;;;;;;14.32;10.25;;;16.40;99.90;;;;;;5030124;28;20056;-85
2023/06/16 01:24:27;;;;;;;15.30;9.90;;;16.50;99.90;;;;;;5030951;28;20060;-85
2023/06/16 01:27:17;;;;;;;13.25;10.02;;;16.40;99.90;;;;;;5030169;28;20395;-84
2023/06/16 01:30:05;;;;;;;16.90;10.55;;;16.40;99.90;;;;;;5021600;28;20077;-81
2023/06/16 01:32:55;;;;;;;17.30;11.38;;;16.40;99.90;;;;;;5040120;28;20072;-80
2023/06/16 01:35:42;;;;;;;13.30;9.73;;;16.40;99.90;;;;;;5024476;28;20045;-84
2023/06/16 01:38:30;;;;;;;11.75;8.95;;;16.30;99.90;;;;;;5031714;28;20389;-80
2023/06/16 01:41:19;;;;;;;16.10;10.90;;;16.40;99.90;;;;;;5030321;28;20140;-81
2023/06/16 01:44:06;;;;;;;16.67;11.85;;;16.30;99.90;;;;;;5033225;28;20520;-83
2023/06/16 01:46:53;;;;;;;14.95;12.13;;;16.30;99.90;;;;;;5032733;28;20057;-81
2023/06/16 01:49:40;;;;;;;21.60;12.77;;;16.30;99.90;;;;;;5034953;28;20105;-86
2023/06/16 01:52:26;;;;;;;19.23;12.95;;;16.30;99.90;;;;;;5033623;28;20049;-80
2023/06/16 01:55:12;;;;;;;22.08;13.13;;;16.30;99.90;;;;;;5013406;28;20087;-85
2023/06/16 01:57:59;;;;;;;17.38;12.77;;;16.30;99.90;;;;;;5013277;28;20802;-80
2023/06/16 02:01:04;;;;;;;18.50;13.27;;;16.20;99.90;;;;;;5011832;28;20057;-80
2023/06/16 02:03:53;;;;;;;;;;;16.20;99.90;;;;;;5030009;28;20054;-81
2023/06/16 02:06:58;;;;;;;18.80;11.52;;;16.20;99.90;;;;;;5033425;28;19925;-80
2023/06/16 02:09:46;;;;;;;19.02;11.60;;;16.10;99.90;;;;;;5033338;28;20050;-83
2023/06/16 02:12:33;;;;;;;15.35;9.85;;;16.10;99.90;;;;;;5033272;28;20053;-82
2023/06/16 02:15:20;;;;;;;16.02;10.80;;;16.10;99.90;;;;;;5033999;28;20048;-84
2023/06/16 02:18:09;;;;;;;16.73;11.10;;;16.10;99.90;;;;;;5036355;28;20045;-80
2023/06/16 02:20:55;;;;;;;16.65;11.57;;;16.10;99.90;;;;;;5034438;28;20053;-84
2023/06/16 02:23:41;;;;;;;19.35;12.80;;;16.00;99.90;;;;;;5032621;28;20060;-80
2023/06/16 02:26:27;;;;;;;17.40;10.70;;;16.00;99.90;;;;;;5033218;28;20555;-80
2023/06/16 02:29:13;;;;;;;17.90;13.07;;;16.00;99.90;;;;;;5016143;28;20136;-83
2023/06/16 02:31:59;;;;;;;17.70;13.20;;;15.90;99.90;;;;;;5032905;28;20041;-85
2023/06/16 02:34:46;;;;;;;21.33;15.80;;;15.90;99.90;;;;;;5031047;28;20053;-81
2023/06/16 02:37:35;;;;;;;23.05;14.90;;;15.90;99.90;;;;;;5033131;28;20480;-88
2023/06/16 02:40:21;;;;;;;19.08;14.45;;;15.90;99.90;;;;;;5018201;28;20056;-85
2023/06/16 02:43:07;;;;;;;18.75;11.52;;;15.90;99.90;;;;;;5035721;28;20046;-91
2023/06/16 02:45:54;;;;;;;20.17;13.70;;;15.90;99.90;;;;;;5043492;28;20049;-84
2023/06/16 02:48:40;;;;;;;19.02;11.20;;;15.90;99.90;;;;;;5035153;28;20057;-83
2023/06/16 02:51:26;;;;;;;12.38;9.35;;;15.90;99.90;;;;;;5014704;28;20088;-88
2023/06/16 02:54:12;;;;;;;20.85;12.55;;;15.80;99.90;;;;;;5014409;28;20448;-84
2023/06/16 02:56:58;;;;;;;19.95;11.80;;;15.80;99.90;;;;;;5014045;28;20136;-85
2023/06/16 02:59:45;;;;;;;20.45;12.48;;;15.80;99.90;;;;;;5014860;28;20061;-88
2023/06/16 03:02:31;;;;;;;17.88;11.43;;;15.80;99.90;;;;;;5032398;28;20049;-85
2023/06/16 03:05:18;;;;;;;14.27;10.73;;;15.80;99.90;;;;;;5038508;28;20045;-81
2023/06/16 03:08:04;;;;;;;18.20;12.65;;;15.70;99.90;;;;;;5031920;28;20053;-84
2023/06/16 03:10:53;;;;;;;16.17;11.40;;;15.70;99.90;;;;;;5014687;28;20136;-86
2023/06/16 03:13:40;;;;;;;14.00;10.77;;;15.70;99.90;;;;;;5033372;28;20057;-84
2023/06/16 03:16:27;;;;;;;18.30;12.55;;;15.70;99.90;;;;;;5031857;28;20046;-82
2023/06/16 03:19:13;;;;;;;18.48;10.98;;;15.70;99.90;;;;;;5034084;28;20084;-84
2023/06/16 03:22:00;;;;;;;16.55;11.57;;;15.80;99.90;;;;;;5031895;28;20062;-83
2023/06/16 03:24:47;;;;;;;12.35;9.10;;;15.80;99.90;;;;;;5032445;28;20053;-82
2023/06/16 03:27:34;;;;;;;15.60;11.13;;;15.80;99.90;;;;;;5034658;28;20511;-84
2023/06/16 03:30:20;;;;;;;15.68;9.77;;;15.90;99.90;;;;;;5033469;28;20049;-84
2023/06/16 03:33:06;;;;;;;16.13;11.35;;;15.90;99.90;;;;;;5041421;28;20089;-82
2023/06/16 03:35:52;;;;;;;21.75;13.20;;;15.90;99.90;;;;;;5023238;28;20049;-81
2023/06/16 03:38:38;;;;;;;21.58;12.40;;;15.90;99.90;;;;;;5019882;28;20054;-81
2023/06/16 03:41:24;;;;;;;18.45;10.70;;;15.90;99.90;;;;;;5032878;28;20054;-81
2023/06/16 03:44:10;;;;;;;14.00;9.52;;;15.90;99.90;;;;;;5000882;28;20045;-81
2023/06/16 03:46:56;;;;;;;14.10;9.95;;;16.00;99.90;;;;;;5013245;28;20060;-81
2023/06/16 03:49:42;;;;;;;15.77;9.60;;;16.00;99.90;;;;;;5031017;28;20088;-86
2023/06/16 03:52:29;;;;;;;16.60;11.00;;;16.00;99.90;;;;;;5014688;28;20519;-80
2023/06/16 03:55:15;;;;;;;16.80;9.30;;;16.00;99.90;;;;;;5034423;28;20128;-89
2023/06/16 03:58:01;;;;;;;13.20;9.30;;;16.10;99.90;;;;;;5030990;28;20061;-90
2023/06/16 04:00:47;;;;;;;11.07;8.40;;;16.00;99.90;;;;;;5032349;28;20079;-86
2023/06/16 04:03:33;;;;;;;14.65;7.07;;;16.10;99.90;;;;;;5031538;28;20053;-86
2023/06/16 04:06:19;;;;;;;12.80;8.32;;;16.10;99.90;;;;;;5031499;28;20095;-84
2023/06/16 04:09:05;;;;;;;11.65;8.35;;;16.10;99.90;;;;;;5031967;28;20084;-89
2023/06/16 04:11:52;;;;;;;15.18;9.75;;;16.10;99.90;;;;;;5012729;28;20149;-87
2023/06/16 04:14:38;;;;;;;13.13;10.10;;;16.20;99.90;;;;;;4999141;28;20057;-85
2023/06/16 04:17:24;;;;;;;14.73;10.20;;;16.20;99.90;;;;;;5017516;28;20061;-86
2023/06/16 04:20:11;;;;;;;15.48;10.48;;;16.20;99.90;;;;;;5019372;28;20057;-88
2023/06/16 04:22:57;;;;;;;17.67;10.75;;;16.30;99.90;;;;;;5013963;28;20054;-82
2023/06/16 04:25:43;;;;;;;13.02;9.25;;;16.30;99.90;;;;;;5031368;28;20133;-82
2023/06/16 04:28:30;;;;;;;14.50;9.50;;;16.30;99.90;;;;;;5030727;28;20046;-86
2023/06/16 04:31:16;;;;;;;13.45;8.07;;;16.40;99.90;;;;;;5031264;28;20110;-87
2023/06/16 04:34:05;;;;;;;12.85;8.00;;;16.40;99.90;;;;;;4999357;28;20055;-84
2023/06/16 04:36:51;;;;;;;13.43;8.50;;;16.50;99.90;;;;;;4998153;28;20049;-87
2023/06/16 04:39:37;;;;;;;17.23;8.43;;;16.50;99.90;;;;;;5011929;28;20055;-86
2023/06/16 04:42:23;;;;;;;11.05;7.72;;;16.60;99.90;;;;;;5012666;28;20049;-86
2023/06/16 04:45:10;;;;;;;11.27;8.15;;;16.60;99.90;;;;;;5012856;28;20077;-81
2023/06/16 04:47:56;;;;;;;14.40;8.50;;;16.70;99.90;;;;;;5030521;28;20103;-82
2023/06/16 04:50:42;;;;;;;11.20;8.05;;;16.80;99.90;;;;;;5030912;28;20068;-82
2023/06/16 04:53:28;;;;;;;12.35;7.25;;;16.80;99.90;;;;;;5029362;28;20123;-84
2023/06/16 04:56:15;;;;;;;9.18;7.00;;;16.90;99.90;;;;;;5016961;28;20050;-81
2023/06/16 04:59:01;;;;;;;13.00;6.45;;;16.90;99.90;;;;;;5030894;28;20126;-81
2023/06/16 05:01:47;;;;;;;10.77;6.80;;;17.00;99.90;;;;;;5029842;28;20045;-81
2023/06/16 05:04:33;;;;;;;13.50;6.90;;;17.10;99.90;;;;;;5012921;28;20135;-82
2023/06/16 05:07:19;;;;;;;8.95;6.22;;;17.10;99.90;;;;;;5016395;28;20045;-82
2023/06/16 05:10:06;;;;;;;12.60;6.07;;;17.20;99.90;;;;;;5030074;28;20128;-85
2023/06/16 05:12:52;;;;;;;12.93;6.93;;;17.30;99.90;;;;;;5028651;28;20140;-84
2023/06/16 05:15:38;;;;;;;10.25;6.65;;;17.30;99.90;;;;;;5031127;28;20064;-88
2023/06/16 05:18:24;;;;;;;13.50;7.15;;;17.40;99.90;;;;;;5030398;28;20064;-90
2023/06/16 05:21:10;;;;;;;13.02;7.65;;;17.50;99.90;;;;;;5001473;28;20489;-82
2023/06/16 05:23:57;;;;;;;12.55;7.10;;;17.60;99.90;;;;;;5034267;28;20053;-82
2023/06/16 05:26:43;;;;;;;15.38;7.80;;;17.60;99.90;;;;;;5034526;28;20128;-85
2023/06/16 05:29:29;;;;;;;12.13;7.18;;;17.70;99.90;;;;;;5014536;28;20433;-87
2023/06/16 05:32:16;;;;;;;10.05;6.40;;;17.80;99.90;;;;;;5030419;28;20049;-84
2023/06/16 05:35:02;;;;;;;11.90;7.18;;;17.80;99.90;;;;;;5033024;28;20054;-88
2023/06/16 05:37:48;;;;;;;10.93;7.28;;;17.90;99.90;;;;;;5014711;28;20547;-86
2023/06/16 05:40:35;;;;;;;10.18;6.95;;;17.90;99.90;;;;;;5033422;28;20084;-82
2023/06/16 05:43:21;;;;;;;12.70;6.75;;;18.00;99.90;;;;;;5032486;28;20046;-81
2023/06/16 05:46:07;;;;;;;9.30;6.18;;;18.10;99.90;;;;;;5018080;28;20052;-83
2023/06/16 05:48:54;;;;;;;7.95;6.00;;;18.20;99.90;;;;;;5034136;28;20094;-83
2023/06/16 05:51:40;;;;;;;8.20;5.50;;;18.20;99.90;;;;;;5015237;28;20045;-81
2023/06/16 05:54:26;;;;;;;9.63;6.05;;;18.20;99.90;;;;;;5033215;28;20057;-85
2023/06/16 05:57:12;;;;;;;10.70;6.35;;;18.40;99.90;;;;;;5033574;28;20046;-87
2023/06/16 05:59:58;;;;;;;9.55;6.22;;;18.40;99.90;;;;;;5033439;28;20049;-88
2023/06/16 06:02:44;;;;;;;10.60;5.25;;;18.50;99.90;;;;;;5038549;28;20045;-82
2023/06/16 06:05:30;;;;;;;10.48;5.82;;;18.50;99.90;;;;;;5035691;28;20076;-85
2023/06/16 06:08:16;;;;;;;9.15;5.45;;;18.60;99.90;;;;;;5018309;28;20068;-83
2023/06/16 06:11:05;;;;;;;11.60;6.38;;;18.70;99.90;;;;;;5016299;28;20060;-87
2023/06/16 06:13:51;;;;;;;9.65;6.05;;;18.70;99.90;;;;;;5033221;28;20057;-81
2023/06/16 06:16:38;;;;;;;10.40;6.18;;;18.80;99.90;;;;;;5032781;28;20045;-82
2023/06/16 06:19:24;;;;;;;10.43;6.30;;;18.90;99.90;;;;;;5036727;28;20041;-84
2023/06/16 06:22:10;;;;;;;12.05;5.57;;;18.90;99.90;;;;;;5006455;28;20367;-82
2023/06/16 06:24:56;;;;;;;12.52;6.55;;;19.10;99.90;;;;;;5036792;28;20332;-83
2023/06/16 06:27:42;;;;;;;9.93;5.47;;;19.20;99.90;;;;;;5034471;28;20489;-86
2023/06/16 06:30:28;;;;;;;8.25;6.43;;;19.50;99.90;;;;;;5035233;28;20063;-84
2023/06/16 06:33:15;;;;;;;10.80;6.03;;;19.50;99.90;;;;;;5035268;28;20041;-82
2023/06/16 06:36:00;;;;;;;11.80;6.20;;;19.60;99.90;;;;;;5033193;28;20571;-91
2023/06/16 06:38:47;;;;;;;8.75;4.88;;;19.70;99.90;;;;;;5032803;28;20060;-87
2023/06/16 06:41:33;;;;;;;8.45;5.13;;;19.80;99.90;;;;;;5032059;28;20560;-81
2023/06/16 06:44:19;;;;;;;9.80;4.70;;;19.80;99.90;;;;;;5015505;28;20140;-82
2023/06/16 06:47:06;;;;;;;11.07;4.78;;;19.90;99.90;;;;;;5032392;28;20160;-85
2023/06/16 06:49:53;;;;;;;9.50;4.47;;;20.10;99.90;;;;;;5031353;28;20493;-87
2023/06/16 06:52:40;;;;;;;7.50;4.95;;;20.20;99.90;;;;;;5033292;28;20438;-89
2023/06/16 06:55:26;;;;;;;8.65;4.28;;;20.30;99.90;;;;;;5032751;28;20053;-81
2023/06/16 06:58:12;;;;;;;8.70;4.35;;;20.30;99.90;;;;;;5019264;28;20046;-81
2023/06/16 07:00:58;;;;;;;8.27;4.35;;;20.40;99.90;;;;;;5032130;28;20480;-89
2023/06/16 07:03:44;;;;;;;10.15;4.47;;;20.50;99.90;;;;;;5032435;28;20049;-86
2023/06/16 07:06:32;;;;;;;9.02;4.03;;;20.50;99.90;;;;;;5031241;28;20053;-86
2023/06/16 07:09:18;;;;;;;6.32;3.38;;;20.60;99.90;;;;;;5031269;28;20053;-83
2023/06/16 07:12:05;;;;;;;12.43;4.40;;;20.70;99.90;;;;;;5031179;28;20042;-87
2023/06/16 07:14:51;;;;;;;6.00;3.53;;;20.70;99.90;;;;;;5014525;28;20152;-85
2023/06/16 07:17:37;;;;;;;7.30;4.10;;;20.80;99.90;;;;;;5033032;28;20056;-89
2023/06/16 07:20:23;;;;;;;7.38;3.42;;;20.90;99.90;;;;;;5033109;28;20056;-86
2023/06/16 07:23:09;;;;;;;7.25;3.92;;;20.90;99.90;;;;;;5036275;28;20046;-81
2023/06/16 07:25:55;;;;;;;5.93;3.63;;;20.90;99.90;;;;;;5015320;28;20144;-89
2023/06/16 07:28:42;;;;;;;7.05;3.60;;;21.00;99.90;;;;;;5040414;28;20052;-82
2023/06/16 07:31:28;;;;;;;6.47;3.40;;;21.10;99.90;;;;;;5044239;28;20058;-81
2023/06/16 07:34:14;;;;;;;7.22;3.80;;;21.20;99.90;;;;;;5043235;28;20056;-81
2023/06/16 07:37:00;;;;;;;8.75;3.42;;;21.30;99.90;;;;;;5043284;28;20105;-82
2023/06/16 07:39:47;;;;;;;5.53;3.22;;;21.40;99.90;;;;;;5031305;28;20045;-80
2023/06/16 07:42:33;;;;;;;6.03;3.13;;;21.50;99.90;;;;;;5032214;28;20107;-86
2023/06/16 07:45:19;;;;;;;9.15;3.70;;;21.40;99.90;;;;;;5034147;28;20049;-85
2023/06/16 07:48:07;;;;;;;6.05;3.13;;;21.50;99.90;;;;;;5030898;28;20063;-82
2023/06/16 07:50:53;;;;;;;8.48;3.75;;;21.60;99.90;;;;;;5031837;28;20050;-84
2023/06/16 07:53:41;;;;;;;6.75;2.60;;;21.90;99.90;;;;;;5030879;28;20064;-86
2023/06/16 07:56:28;;;;;;;6.28;3.05;;;22.10;99.90;;;;;;5032765;28;20053;-84
2023/06/16 07:59:14;;;;;;;7.63;3.13;;;22.10;99.90;;;;;;5032738;28;20064;-81
2023/06/16 08:02:02;;;;;;;5.80;2.97;;;22.30;99.90;;;;;;5030308;28;20128;-82
2023/06/16 08:04:48;;;;;;;7.80;3.03;;;22.30;99.90;;;;;;5032075;28;20057;-81
2023/06/16 08:07:35;;;;;;;8.05;2.90;;;22.30;99.90;;;;;;5032635;28;20052;-83
2023/06/16 08:10:21;;;;;;;8.25;3.00;;;22.20;99.80;;;;;;5030997;28;20080;-82
2023/06/16 08:13:07;;;;;;;6.93;3.00;;;22.30;99.70;;;;;;5029601;28;20539;-83
2023/06/16 08:15:53;;;;;;;7.28;2.97;;;22.40;99.30;;;;;;5030866;28;20067;-82
2023/06/16 08:18:39;;;;;;;9.15;3.28;;;22.40;99.20;;;;;;5016200;28;20141;-84
2023/06/16 08:21:26;;;;;;;7.00;2.55;;;22.40;99.20;;;;;;5033512;28;20057;-87
2023/06/16 08:24:12;;;;;;;5.60;3.08;;;22.50;99.20;;;;;;5030986;28;20488;-86
2023/06/16 08:26:59;;;;;;;6.93;3.50;;;22.80;98.80;;;;;;5030545;28;20115;-84
2023/06/16 08:29:51;;;;;;;5.95;1.95;;;22.80;98.50;;;;;;5032159;28;20618;-82
2023/06/16 08:32:37;;;;;;;7.50;2.58;;;22.80;98.10;;;;;;5031102;28;20056;-82
2023/06/16 08:35:23;;;;;;;6.13;2.30;;;22.80;97.20;;;;;;5030566;28;20053;-83
2023/06/16 08:38:09;;;;;;;5.95;3.00;;;22.90;96.90;;;;;;5032327;28;20417;-88
2023/06/16 08:40:55;;;;;;;8.98;2.20;;;23.00;96.60;;;;;;5030869;28;20049;-81
2023/06/16 08:43:43;;;;;;;5.32;2.92;;;23.10;96.30;;;;;;5030535;28;20045;-88
2023/06/16 08:46:29;;;;;;;9.35;2.50;;;23.20;96.10;;;;;;5030043;28;20084;-86
2023/06/16 08:49:16;;;;;;;7.40;2.80;;;23.20;96.10;;;;;;5012641;28;20053;-80
2023/06/16 08:52:04;;;;;;;5.47;2.33;;;23.40;95.90;;;;;;5014314;28;20559;-85
2023/06/16 08:54:57;;;;;;;6.40;2.47;;;23.40;95.10;;;;;;5029576;28;20057;-86
2023/06/16 08:57:49;;;;;;;5.97;2.92;;;23.70;95.10;;;;;;5030511;28;20057;-81
2023/06/16 09:00:36;;;;;;;6.30;2.40;;;23.90;94.80;;;;;;5030922;28;20057;-82
2023/06/16 09:03:25;;;;;;;5.10;2.40;;;23.70;94.40;;;;;;5033160;28;20056;-85
2023/06/16 09:06:12;;;;;;;7.50;2.30;;;23.60;93.70;;;;;;5016842;28;20405;-88
2023/06/16 09:08:58;;;;;;;6.50;2.20;;;23.70;93.40;;;;;;5031559;28;20054;-81
2023/06/16 09:12:02;;;;;;;9.48;2.65;;;23.90;92.40;;;;;;5015351;28;20486;-79
2023/06/16 09:14:50;;;;;;;7.50;2.35;;;24.00;92.20;;;;;;5033373;28;20104;-82
2023/06/16 09:17:38;;;;;;;5.75;2.20;;;24.20;92.90;;;;;;5030080;28;20053;-82
2023/06/16 09:20:24;;;;;;;4.50;2.13;;;24.20;92.50;;;;;;5030322;28;20115;-88
2023/06/16 09:23:10;;;;;;;7.18;2.65;;;24.30;92.10;;;;;;5029649;28;20390;-86
2023/06/16 09:25:57;;;;;;;5.90;2.40;;;24.30;92.40;;;;;;5029918;28;20053;-82
2023/06/16 09:28:45;;;;;;;7.03;2.40;;;24.30;93.00;;;;;;5030219;28;20045;-82
2023/06/16 09:31:31;;;;;;;6.40;2.80;;;24.50;93.30;;;;;;5035530;28;20053;-80
2023/06/16 09:34:17;;;;;;;5.38;2.63;;;24.50;93.10;;;;;;5033520;28;20049;-85
2023/06/16 09:37:10;;;;;;;6.05;2.60;;;24.70;92.60;;;;;;5030228;28;20512;-82
2023/06/16 09:40:06;;;;;;;7.57;2.58;;;24.80;92.90;;;;;;5030585;28;20524;-83
2023/06/16 09:42:52;;;;;;;6.63;2.90;;;24.70;93.00;;;;;;5012778;28;20129;-83
2023/06/16 09:45:38;;;;;;;4.68;2.97;;;24.70;92.90;;;;;;5029309;28;20076;-86
2023/06/16 09:48:26;;;;;;;6.30;2.22;;;24.80;92.80;;;;;;5030844;28;20087;-80
2023/06/16 09:51:20;;;;;;;6.50;2.75;;;24.80;92.20;;;;;;5030491;28;20414;-83
2023/06/16 09:54:06;;;;;;;5.65;2.28;;;24.80;92.20;;;;;;5030226;28;20053;-81
2023/06/16 09:56:56;;;;;;;7.68;2.47;;;24.80;92.40;;;;;;5029875;28;20072;-81
2023/06/16 09:59:42;;;;;;;8.38;2.75;;;25.00;91.90;;;;;;5030864;28;20456;-82
2023/06/16 10:02:29;;;;;;;10.15;2.40;;;25.00;91.40;;;;;;5015586;28;20045;-83
2023/06/16 10:05:18;;;;;;;6.97;2.10;;;25.00;92.40;;;;;;5011305;28;20053;-87
2023/06/16 10:08:06;;;;;;;6.93;2.70;;;25.30;92.80;;;;;;5014690;28;20385;-84
2023/06/16 10:10:52;;;;;;;5.60;2.33;;;25.50;92.20;;;;;;5029435;28;20080;-79
2023/06/16 10:13:41;;;;;;;4.93;2.25;;;25.60;92.20;;;;;;5028630;28;20056;-79
2023/06/16 10:16:29;;;;;;;6.05;2.28;;;25.70;91.90;;;;;;5029345;28;20049;-83
2023/06/16 10:19:18;;;;;;;8.77;2.38;;;25.60;91.60;;;;;;5029393;28;20056;-92
2023/06/16 10:22:05;;;;;;;3.92;2.35;;;25.30;91.30;;;;;;5029579;28;20482;-84
2023/06/16 10:24:51;;;;;;;6.18;1.80;;;25.60;90.60;;;;;;5017964;28;20420;-85
2023/06/16 10:27:40;;;;;;;5.47;1.85;;;25.70;90.10;;;;;;5035585;28;20042;-82
2023/06/16 10:30:28;;;;;;;5.35;2.00;;;25.80;90.40;;;;;;5036439;28;20054;-81
2023/06/16 10:33:22;;;;;;;4.53;2.10;;;26.10;89.70;;;;;;5032923;28;20049;-79
2023/06/16 10:36:10;;;;;;;5.75;2.13;;;26.10;87.50;;;;;;5034781;28;20056;-80
2023/06/16 10:39:06;;;;;;;6.68;1.95;;;26.10;87.70;;;;;;5035485;28;20052;-79
2023/06/16 10:41:58;;;;;;;6.38;2.00;;;26.20;87.80;;;;;;5033511;28;20050;-77
2023/06/16 10:44:44;;;;;;;5.70;1.95;;;26.00;88.20;;;;;;5000418;28;20144;-76
2023/06/16 10:47:30;;;;;;;4.47;1.92;;;26.00;88.40;;;;;;5032003;28;20057;-78
2023/06/16 10:50:16;;;;;;;7.45;2.65;;;26.20;89.10;;;;;;5032151;28;20878;-80
2023/06/16 10:53:12;;;;;;;5.50;2.10;;;26.20;89.60;;;;;;5031860;28;20505;-82
2023/06/16 10:56:05;;;;;;;8.77;2.30;;;26.20;89.60;;;;;;5031594;28;20053;-77
2023/06/16 10:58:58;;;;;;;6.32;2.05;;;26.10;89.50;;;;;;5032096;28;20059;-83
2023/06/16 11:01:46;;;;;;;5.35;2.15;;;26.20;88.80;;;;;;5033252;28;20050;-77
2023/06/16 11:04:33;;;;;;;5.57;2.53;;;26.20;88.90;;;;;;5014627;28;20072;-84
2023/06/16 11:07:19;;;;;;;4.53;2.05;;;26.40;88.80;;;;;;5031404;28;20050;-77
2023/06/16 11:10:10;;;;;;;8.90;2.10;;;26.60;87.40;;;;;;5032541;28;20115;-82
2023/06/16 11:12:57;;;;;;;4.88;2.15;;;26.60;87.60;;;;;;5031917;28;20050;-81
2023/06/16 11:15:43;;;;;;;5.43;2.05;;;26.40;86.30;;;;;;5031255;28;20523;-83
2023/06/16 11:18:33;;;;;;;5.57;2.15;;;26.60;86.60;;;;;;5031864;28;20045;-89
2023/06/16 11:21:19;;;;;;;7.47;2.30;;;26.80;85.20;;;;;;5015352;28;20115;-82
2023/06/16 11:24:11;;;;;;;4.80;1.60;;;26.90;84.70;;;;;;5034928;28;20053;-81
2023/06/16 11:26:57;;;;;;;4.00;1.80;;;27.10;85.50;;;;;;5030777;28;20136;-78
2023/06/16 11:29:43;;;;;;;4.75;2.10;;;27.20;84.90;;;;;;5032046;28;20061;-83
2023/06/16 11:32:34;;;;;;;6.95;2.10;;;27.10;84.70;;;;;;5013839;28;20060;-83
2023/06/16 11:35:32;;;;;;;5.22;2.30;;;27.20;83.00;;;;;;5031607;28;20144;-81
2023/06/16 11:38:25;;;;;;;5.63;1.90;;;27.20;82.60;;;;;;5032491;28;20061;-79
2023/06/16 11:41:19;;;;;;;4.47;2.00;;;27.20;82.10;;;;;;5031580;28;20482;-78
2023/06/16 11:44:12;;;;;;;5.00;2.33;;;27.30;82.40;;;;;;5032302;28;20104;-82
2023/06/16 11:46:58;;;;;;;5.43;2.28;;;27.50;81.30;;;;;;5030650;28;20049;-77
2023/06/16 11:49:44;;;;;;;8.15;1.73;;;27.50;81.10;;;;;;5030661;28;20574;-81
2023/06/16 11:52:31;;;;;;;6.15;2.13;;;27.40;81.20;;;;;;5030899;28;20049;-80
2023/06/16 11:55:17;;;;;;;4.60;2.30;;;27.10;81.50;;;;;;5030732;28;20156;-79
2023/06/16 11:58:03;;;;;;;4.38;2.20;;;27.10;80.40;;;;;;5032200;28;20064;-82
2023/06/16 12:00:50;;;;;;;6.25;2.40;;;27.00;81.20;;;;;;5032158;28;20049;-87
2023/06/16 12:03:37;;;;;;;5.35;2.17;;;27.10;80.60;;;;;;5019434;28;20118;-87
2023/06/16 12:06:24;;;;;;;5.43;1.95;;;27.10;80.60;;;;;;5031151;28;20085;-85
2023/06/16 12:09:13;;;;;;;4.28;2.20;;;27.00;80.00;;;;;;5013256;28;20063;-80
2023/06/16 12:12:02;;;;;;;6.03;1.90;;;27.10;79.40;;;;;;5030425;28;20173;-77
2023/06/16 12:14:49;;;;;;;4.70;2.25;;;27.20;78.30;;;;;;5031184;28;20065;-81
2023/06/16 12:17:35;;;;;;;3.65;2.00;;;27.50;79.00;;;;;;5013568;28;20064;-79
2023/06/16 12:20:22;;;;;;;6.78;2.53;;;27.50;79.90;;;;;;5031756;28;20448;-80
2023/06/16 12:23:11;;;;;;;5.78;2.35;;;27.40;79.50;;;;;;5030047;28;20160;-84
2023/06/16 12:25:57;;;;;;;6.60;2.08;;;27.30;80.50;;;;;;5030703;28;20050;-80
2023/06/16 12:28:45;;;;;;;6.82;2.03;;;27.60;80.80;;;;;;5031092;28;20049;-78
2023/06/16 12:31:31;;;;;;;5.97;2.53;;;27.60;80.10;;;;;;5030688;28;20104;-83
2023/06/16 12:34:26;;;;;;;6.13;2.20;;;27.90;78.90;;;;;;5032840;28;20115;-79
2023/06/16 12:37:13;;;;;;;;;;;28.10;76.50;;;;;;5030907;28;20054;-89
2023/06/16 12:40:00;;;;;;;5.78;2.17;;;27.80;77.60;;;;;;5032413;28;20354;-79
2023/06/16 12:42:46;;;;;;;3.65;1.92;;;27.70;78.40;;;;;;5035243;28;20076;-84
2023/06/16 12:45:32;;;;;;;5.13;2.33;;;27.60;77.20;;;;;;5030793;28;20049;-83
2023/06/16 12:48:18;;;;;;;6.47;1.90;;;27.90;75.90;;;;;;5029400;28;20448;-82
2023/06/16 12:51:04;;;;;;;6.40;2.10;;;27.90;73.30;;;;;;5014809;28;20050;-81
2023/06/16 12:53:50;;;;;;;5.65;2.70;;;28.30;72.90;;;;;;5029604;28;20195;-81
2023/06/16 12:56:36;;;;;;;6.70;2.20;;;28.10;72.90;;;;;;5030427;28;20126;-80
2023/06/16 12:59:22;;;;;;;6.80;2.28;;;28.40;74.50;;;;;;5011292;28;20049;-79
2023/06/16 13:02:09;;;;;;;5.88;2.95;;;28.80;74.30;;;;;;5030398;28;20049;-80
2023/06/16 13:04:56;;;;;;;6.50;2.72;;;29.00;71.40;;;;;;5013963;28;20053;-83
2023/06/16 13:07:43;;;;;;;7.57;3.30;;;29.00;71.80;;;;;;5029628;28;20196;-76
2023/06/16 13:10:29;;;;;;;8.05;2.80;;;29.10;72.20;;;;;;5029617;28;20412;-81
2023/06/16 13:13:15;;;;;;;5.35;2.72;;;29.00;71.60;;;;;;5014725;28;20390;-78
2023/06/16 13:16:01;;;;;;;4.47;2.45;;;29.00;71.70;;;;;;5029774;28;20057;-87
2023/06/16 13:18:47;;;;;;;6.32;2.28;;;28.90;72.00;;;;;;5033477;28;20064;-82
2023/06/16 13:21:33;;;;;;;6.60;2.33;;;29.00;70.60;;;;;;5031161;28;20123;-87
2023/06/16 13:24:19;;;;;;;7.03;2.17;;;28.90;69.80;;;;;;5012312;28;20045;-85
2023/06/16 13:27:06;;;;;;;4.97;2.50;;;28.90;70.50;;;;;;5030214;28;20054;-85
2023/06/16 13:29:52;;;;;;;8.20;2.03;;;29.00;70.10;;;;;;5012678;28;20057;-81
2023/06/16 13:32:38;;;;;;;7.03;2.10;;;29.10;69.30;;;;;;5030060;28;20096;-77
2023/06/16 13:35:24;;;;;;;6.32;2.00;;;29.30;71.20;;;;;;5034683;28;20084;-76
2023/06/16 13:38:10;;;;;;;5.40;2.28;;;29.50;69.20;;;;;;5035939;28;20056;-77
2023/06/16 13:40:56;;;;;;;7.35;2.53;;;29.30;68.70;;;;;;5037575;28;20049;-80
2023/06/16 13:43:44;;;;;;;6.13;2.30;;;29.60;67.80;;;;;;5030205;28;20053;-77
2023/06/16 13:46:30;;;;;;;5.57;2.03;;;29.70;68.20;;;;;;5012501;28;20115;-78
2023/06/16 13:49:16;;;;;;;7.40;1.90;;;29.70;66.60;;;;;;5029392;28;20057;-81
2023/06/16 13:52:02;;;;;;;7.03;1.77;;;29.70;67.60;;;;;;5028634;28;20088;-81
2023/06/16 13:54:48;;;;;;;4.97;1.80;;;29.90;66.90;;;;;;5029589;28;20423;-78
2023/06/16 13:57:35;;;;;;;8.18;2.17;;;29.90;67.50;;;;;;5028941;28;20103;-78
2023/06/16 14:00:21;;;;;;;6.00;2.15;;;29.90;67.50;;;;;;5031070;28;20097;-81
2023/06/16 14:03:08;;;;;;;9.38;2.60;;;30.30;67.00;;;;;;5034228;28;20768;-81
2023/06/16 14:05:54;;;;;;;4.95;2.05;;;30.40;66.70;;;;;;5034416;28;20405;-80
2023/06/16 14:08:40;;;;;;;7.57;2.05;;;30.20;66.00;;;;;;5019535;28;20105;-80
2023/06/16 14:11:27;;;;;;;5.07;2.42;;;29.90;66.40;;;;;;5033999;28;20405;-80
2023/06/16 14:14:13;;;;;;;7.10;2.53;;;30.20;67.70;;;;;;5033038;28;20081;-82
2023/06/16 14:16:59;;;;;;;7.18;2.15;;;30.10;68.80;;;;;;5015229;28;20064;-79
2023/06/16 14:19:45;;;;;;;7.07;2.38;;;30.40;70.10;;;;;;5033296;28;20095;-78
2023/06/16 14:22:31;;;;;;;6.05;2.53;;;30.70;68.90;;;;;;5015028;28;20049;-84
2023/06/16 14:25:17;;;;;;;6.47;2.55;;;31.00;68.50;;;;;;5034120;28;20049;-79